sensor_id;sensor_type;location;lat;lon;timestamp;pressure;altitude;pressure_sealevel;temperature;humidity
18527;BME280;9393;42.158;24.748;2023-03-11T00:02:46;97762.25;;;14.43;79.75
18527;BME280;9393;42.158;24.748;2023-03-11T00:05:51;97758.63;;;14.44;79.89
18527;BME280;9393;42.158;24.748;2023-03-11T00:08:55;97751.28;;;14.59;79.25
18527;BME280;9393;42.158;24.748;2023-03-11T00:12:01;97748.34;;;14.81;78.13
18527;BME280;9393;42.158;24.748;2023-03-11T00:15:06;97744.38;;;14.96;77.34
18527;BME280;9393;42.158;24.748;2023-03-11T00:18:10;97732.53;;;14.87;77.46
18527;BME280;9393;42.158;24.748;2023-03-11T00:21:15;97721.72;;;14.77;78.07
18527;BME280;9393;42.158;24.748;2023-03-11T00:24:19;97696.91;;;14.73;78.16
18527;BME280;9393;42.158;24.748;2023-03-11T00:27:25;97699.09;;;14.51;79.50
18527;BME280;9393;42.158;24.748;2023-03-11T00:30:29;97692.16;;;14.88;77.91
18527;BME280;9393;42.158;24.748;2023-03-11T00:33:33;97683.44;;;14.94;77.30
18527;BME280;9393;42.158;24.748;2023-03-11T00:36:40;97675.88;;;14.80;78.12
18527;BME280;9393;42.158;24.748;2023-03-11T00:39:44;97671.22;;;14.82;77.98
18527;BME280;9393;42.158;24.748;2023-03-11T00:42:49;97665.94;;;14.88;77.68
18527;BME280;9393;42.158;24.748;2023-03-11T00:45:53;97654.91;;;14.48;79.44
18527;BME280;9393;42.158;24.748;2023-03-11T00:48:57;97648.50;;;14.69;78.44
18527;BME280;9393;42.158;24.748;2023-03-11T00:52:01;97635.16;;;14.46;80.02
18527;BME280;9393;42.158;24.748;2023-03-11T00:55:06;97639.66;;;14.63;79.00
18527;BME280;9393;42.158;24.748;2023-03-11T00:58:11;97632.50;;;14.77;78.32
18527;BME280;9393;42.158;24.748;2023-03-11T01:01:25;97648.19;;;14.84;78.04
18527;BME280;9393;42.158;24.748;2023-03-11T01:04:31;97643.66;;;14.41;79.79
18527;BME280;9393;42.158;24.748;2023-03-11T01:07:35;97628.56;;;13.99;82.41
18527;BME280;9393;42.158;24.748;2023-03-11T01:10:39;97632.06;;;14.17;81.63
18527;BME280;9393;42.158;24.748;2023-03-11T01:13:44;97635.94;;;14.15;81.95
18527;BME280;9393;42.158;24.748;2023-03-11T01:16:48;97622.72;;;14.28;81.13
18527;BME280;9393;42.158;24.748;2023-03-11T01:19:52;97617.03;;;14.38;80.58
18527;BME280;9393;42.158;24.748;2023-03-11T01:22:56;97599.19;;;14.22;81.44
18527;BME280;9393;42.158;24.748;2023-03-11T01:26:00;97598.56;;;14.26;81.27
18527;BME280;9393;42.158;24.748;2023-03-11T01:29:05;97596.44;;;14.41;80.41
18527;BME280;9393;42.158;24.748;2023-03-11T01:32:10;97593.94;;;14.53;79.50
18527;BME280;9393;42.158;24.748;2023-03-11T01:35:15;97607.50;;;14.75;78.48
18527;BME280;9393;42.158;24.748;2023-03-11T01:38:21;97597.25;;;14.42;80.05
18527;BME280;9393;42.158;24.748;2023-03-11T01:41:24;97590.25;;;14.36;80.48
18527;BME280;9393;42.158;24.748;2023-03-11T01:44:30;97599.19;;;14.53;79.78
18527;BME280;9393;42.158;24.748;2023-03-11T01:47:37;97593.47;;;14.62;79.43
18527;BME280;9393;42.158;24.748;2023-03-11T01:50:46;97596.44;;;14.48;80.54
18527;BME280;9393;42.158;24.748;2023-03-11T01:53:52;97594.91;;;14.34;81.26
18527;BME280;9393;42.158;24.748;2023-03-11T01:57:01;97594.97;;;14.52;80.30
18527;BME280;9393;42.158;24.748;2023-03-11T02:00:11;97591.75;;;14.50;81.04
18527;BME280;9393;42.158;24.748;2023-03-11T02:03:20;97574.59;;;14.54;81.08
18527;BME280;9393;42.158;24.748;2023-03-11T02:06:25;97550.28;;;14.65;80.41
18527;BME280;9393;42.158;24.748;2023-03-11T02:09:29;97539.66;;;14.78;79.69
18527;BME280;9393;42.158;24.748;2023-03-11T02:12:34;97554.47;;;14.91;78.58
18527;BME280;9393;42.158;24.748;2023-03-11T02:19:41;97577.31;;;15.08;77.91
18527;BME280;9393;42.158;24.748;2023-03-11T02:22:49;97591.94;;;14.98;78.33
18527;BME280;9393;42.158;24.748;2023-03-11T02:25:59;97635.81;;;13.97;84.25
18527;BME280;9393;42.158;24.748;2023-03-11T02:29:08;97637.09;;;13.81;84.79
18527;BME280;9393;42.158;24.748;2023-03-11T02:32:16;97644.69;;;13.38;86.55
18527;BME280;9393;42.158;24.748;2023-03-11T02:35:21;97645.69;;;13.44;86.36
18527;BME280;9393;42.158;24.748;2023-03-11T02:38:28;97652.97;;;13.29;86.77
18527;BME280;9393;42.158;24.748;2023-03-11T02:41:36;97654.56;;;13.43;85.50
18527;BME280;9393;42.158;24.748;2023-03-11T02:44:45;97651.75;;;13.44;85.34
18527;BME280;9393;42.158;24.748;2023-03-11T02:47:54;97648.91;;;13.39;85.14
18527;BME280;9393;42.158;24.748;2023-03-11T02:50:59;97646.75;;;13.30;85.81
18527;BME280;9393;42.158;24.748;2023-03-11T02:54:04;97635.34;;;13.69;84.00
18527;BME280;9393;42.158;24.748;2023-03-11T02:57:10;97622.66;;;13.72;83.89
18527;BME280;9393;42.158;24.748;2023-03-11T03:00:17;97599.44;;;13.82;83.12
18527;BME280;9393;42.158;24.748;2023-03-11T03:03:31;97589.69;;;13.96;82.35
18527;BME280;9393;42.158;24.748;2023-03-11T03:06:35;97575.88;;;14.07;81.75
18527;BME280;9393;42.158;24.748;2023-03-11T03:09:40;97573.81;;;14.15;81.10
18527;BME280;9393;42.158;24.748;2023-03-11T03:12:44;97559.47;;;13.87;82.50
18527;BME280;9393;42.158;24.748;2023-03-11T03:15:50;97555.91;;;13.81;82.99
18527;BME280;9393;42.158;24.748;2023-03-11T03:18:54;97542.00;;;14.12;81.64
18527;BME280;9393;42.158;24.748;2023-03-11T03:21:59;97535.41;;;14.03;82.24
18527;BME280;9393;42.158;24.748;2023-03-11T03:25:04;97535.13;;;13.80;83.34
18527;BME280;9393;42.158;24.748;2023-03-11T03:28:10;97547.94;;;13.94;82.73
18527;BME280;9393;42.158;24.748;2023-03-11T03:31:20;97540.00;;;14.07;82.21
18527;BME280;9393;42.158;24.748;2023-03-11T03:34:24;97535.50;;;14.14;81.44
18527;BME280;9393;42.158;24.748;2023-03-11T03:37:31;97526.22;;;14.18;81.52
18527;BME280;9393;42.158;24.748;2023-03-11T03:40:36;97536.44;;;14.27;80.78
18527;BME280;9393;42.158;24.748;2023-03-11T03:43:42;97529.50;;;14.07;81.42
18527;BME280;9393;42.158;24.748;2023-03-11T03:46:48;97529.13;;;14.04;81.25
18527;BME280;9393;42.158;24.748;2023-03-11T03:49:52;97536.38;;;14.08;81.29
18527;BME280;9393;42.158;24.748;2023-03-11T03:52:57;97532.94;;;14.08;80.93
18527;BME280;9393;42.158;24.748;2023-03-11T03:56:02;97537.22;;;14.34;79.33
18527;BME280;9393;42.158;24.748;2023-03-11T03:59:08;97548.03;;;14.44;78.61
18527;BME280;9393;42.158;24.748;2023-03-11T04:02:17;97555.22;;;14.24;79.30
18527;BME280;9393;42.158;24.748;2023-03-11T04:05:22;97583.03;;;14.25;79.45
18527;BME280;9393;42.158;24.748;2023-03-11T04:08:30;97611.75;;;14.13;80.32
18527;BME280;9393;42.158;24.748;2023-03-11T04:11:34;97621.81;;;14.16;80.25
18527;BME280;9393;42.158;24.748;2023-03-11T04:14:39;97624.91;;;14.06;80.78
18527;BME280;9393;42.158;24.748;2023-03-11T04:17:45;97634.41;;;13.94;81.36
18527;BME280;9393;42.158;24.748;2023-03-11T04:20:49;97646.56;;;14.27;79.55
18527;BME280;9393;42.158;24.748;2023-03-11T04:23:54;97636.50;;;14.24;79.65
18527;BME280;9393;42.158;24.748;2023-03-11T04:27:03;97643.56;;;14.23;79.45
18527;BME280;9393;42.158;24.748;2023-03-11T04:30:10;97649.81;;;14.22;79.50
18527;BME280;9393;42.158;24.748;2023-03-11T04:33:18;97658.28;;;14.17;79.71
18527;BME280;9393;42.158;24.748;2023-03-11T04:36:23;97681.81;;;13.86;81.39
18527;BME280;9393;42.158;24.748;2023-03-11T04:39:27;97674.38;;;13.83;81.75
18527;BME280;9393;42.158;24.748;2023-03-11T04:42:32;97675.03;;;13.65;82.52
18527;BME280;9393;42.158;24.748;2023-03-11T04:45:37;97665.72;;;13.76;82.11
18527;BME280;9393;42.158;24.748;2023-03-11T04:48:43;97672.59;;;13.77;81.90
18527;BME280;9393;42.158;24.748;2023-03-11T04:51:47;97672.56;;;13.84;81.67
18527;BME280;9393;42.158;24.748;2023-03-11T04:54:54;97679.94;;;14.00;80.50
18527;BME280;9393;42.158;24.748;2023-03-11T04:57:58;97666.13;;;13.73;82.18
18527;BME280;9393;42.158;24.748;2023-03-11T05:01:04;97666.56;;;13.70;82.45
18527;BME280;9393;42.158;24.748;2023-03-11T05:04:09;97660.19;;;13.46;83.84
18527;BME280;9393;42.158;24.748;2023-03-11T05:07:15;97669.44;;;13.49;83.58
18527;BME280;9393;42.158;24.748;2023-03-11T05:10:20;97667.19;;;13.59;82.49
18527;BME280;9393;42.158;24.748;2023-03-11T05:13:29;97680.25;;;13.79;81.23
18527;BME280;9393;42.158;24.748;2023-03-11T05:16:33;97684.34;;;13.61;81.67
18527;BME280;9393;42.158;24.748;2023-03-11T05:19:40;97681.06;;;13.66;81.52
18527;BME280;9393;42.158;24.748;2023-03-11T05:22:51;97674.94;;;13.92;80.19
18527;BME280;9393;42.158;24.748;2023-03-11T05:25:56;97676.53;;;13.93;80.02
18527;BME280;9393;42.158;24.748;2023-03-11T05:29:01;97678.72;;;14.09;79.04
18527;BME280;9393;42.158;24.748;2023-03-11T05:32:06;97672.59;;;13.77;80.34
18527;BME280;9393;42.158;24.748;2023-03-11T05:35:12;97675.28;;;14.08;79.54
18527;BME280;9393;42.158;24.748;2023-03-11T05:38:16;97674.97;;;14.30;78.51
18527;BME280;9393;42.158;24.748;2023-03-11T05:41:20;97675.59;;;14.25;78.54
18527;BME280;9393;42.158;24.748;2023-03-11T05:44:25;97670.25;;;14.45;77.75
18527;BME280;9393;42.158;24.748;2023-03-11T05:47:30;97669.16;;;14.59;77.50
18527;BME280;9393;42.158;24.748;2023-03-11T05:50:37;97673.28;;;14.73;76.77
18527;BME280;9393;42.158;24.748;2023-03-11T05:53:41;97670.25;;;14.76;76.69
18527;BME280;9393;42.158;24.748;2023-03-11T05:56:55;97666.50;;;14.90;76.22
18527;BME280;9393;42.158;24.748;2023-03-11T05:59:59;97662.22;;;14.96;75.98
18527;BME280;9393;42.158;24.748;2023-03-11T06:03:14;97665.31;;;15.11;75.25
18527;BME280;9393;42.158;24.748;2023-03-11T06:06:20;97657.59;;;15.16;75.30
18527;BME280;9393;42.158;24.748;2023-03-11T06:09:25;97649.13;;;15.14;75.56
18527;BME280;9393;42.158;24.748;2023-03-11T06:12:30;97655.06;;;15.09;75.22
18527;BME280;9393;42.158;24.748;2023-03-11T06:15:46;97642.66;;;15.35;74.28
18527;BME280;9393;42.158;24.748;2023-03-11T06:18:51;97634.31;;;15.44;74.02
18527;BME280;9393;42.158;24.748;2023-03-11T06:21:57;97630.81;;;15.69;72.98
18527;BME280;9393;42.158;24.748;2023-03-11T06:25:02;97628.31;;;15.74;72.51
18527;BME280;9393;42.158;24.748;2023-03-11T06:28:08;97623.72;;;15.87;72.26
18527;BME280;9393;42.158;24.748;2023-03-11T06:31:15;97632.22;;;15.71;72.90
18527;BME280;9393;42.158;24.748;2023-03-11T06:34:20;97629.41;;;15.84;72.31
18527;BME280;9393;42.158;24.748;2023-03-11T06:37:27;97629.25;;;15.97;72.02
18527;BME280;9393;42.158;24.748;2023-03-11T06:40:32;97625.53;;;15.87;72.38
18527;BME280;9393;42.158;24.748;2023-03-11T06:43:36;97623.97;;;15.97;72.54
18527;BME280;9393;42.158;24.748;2023-03-11T06:46:41;97635.16;;;15.93;72.85
18527;BME280;9393;42.158;24.748;2023-03-11T06:49:47;97636.41;;;15.90;72.56
18527;BME280;9393;42.158;24.748;2023-03-11T06:52:54;97630.94;;;15.74;71.21
18527;BME280;9393;42.158;24.748;2023-03-11T06:56:00;97627.22;;;15.81;70.64
18527;BME280;9393;42.158;24.748;2023-03-11T06:59:07;97620.50;;;15.85;69.29
18527;BME280;9393;42.158;24.748;2023-03-11T07:02:13;97619.81;;;15.90;69.11
18527;BME280;9393;42.158;24.748;2023-03-11T07:05:18;97630.56;;;15.88;68.52
18527;BME280;9393;42.158;24.748;2023-03-11T07:08:26;97625.63;;;15.80;68.97
18527;BME280;9393;42.158;24.748;2023-03-11T07:11:31;97621.53;;;15.84;69.24
18527;BME280;9393;42.158;24.748;2023-03-11T07:14:42;97623.34;;;15.84;69.78
18527;BME280;9393;42.158;24.748;2023-03-11T07:17:46;97616.97;;;16.21;68.88
18527;BME280;9393;42.158;24.748;2023-03-11T07:20:52;97636.25;;;16.86;66.71
18527;BME280;9393;42.158;24.748;2023-03-11T07:23:59;97620.78;;;17.48;65.49
18527;BME280;9393;42.158;24.748;2023-03-11T07:27:04;97629.25;;;18.01;63.36
18527;BME280;9393;42.158;24.748;2023-03-11T07:30:09;97623.25;;;18.34;62.18
18527;BME280;9393;42.158;24.748;2023-03-11T07:33:14;97617.97;;;18.62;60.53
18527;BME280;9393;42.158;24.748;2023-03-11T07:36:20;97619.03;;;18.61;59.80
18527;BME280;9393;42.158;24.748;2023-03-11T07:39:26;97618.41;;;18.43;58.80
18527;BME280;9393;42.158;24.748;2023-03-11T07:42:31;97617.53;;;18.37;59.14
18527;BME280;9393;42.158;24.748;2023-03-11T07:45:36;97616.59;;;18.15;60.07
18527;BME280;9393;42.158;24.748;2023-03-11T07:48:41;97620.78;;;17.99;60.81
18527;BME280;9393;42.158;24.748;2023-03-11T07:51:45;97631.72;;;17.91;61.16
18527;BME280;9393;42.158;24.748;2023-03-11T07:54:51;97630.59;;;18.15;60.78
18527;BME280;9393;42.158;24.748;2023-03-11T07:57:55;97627.28;;;18.08;59.93
18527;BME280;9393;42.158;24.748;2023-03-11T08:01:03;97615.47;;;18.11;59.42
18527;BME280;9393;42.158;24.748;2023-03-11T08:04:09;97610.53;;;18.31;58.05
18527;BME280;9393;42.158;24.748;2023-03-11T08:07:15;97605.53;;;18.46;57.61
18527;BME280;9393;42.158;24.748;2023-03-11T08:10:21;97600.56;;;18.50;56.18
18527;BME280;9393;42.158;24.748;2023-03-11T08:13:25;97603.69;;;19.13;54.94
18527;BME280;9393;42.158;24.748;2023-03-11T08:16:30;97594.94;;;19.30;52.70
18527;BME280;9393;42.158;24.748;2023-03-11T08:19:34;97595.22;;;19.50;51.27
18527;BME280;9393;42.158;24.748;2023-03-11T08:22:38;97597.09;;;19.33;51.83
18527;BME280;9393;42.158;24.748;2023-03-11T08:26:02;97597.06;;;19.11;51.93
18527;BME280;9393;42.158;24.748;2023-03-11T08:29:10;97591.41;;;19.24;51.98
18527;BME280;9393;42.158;24.748;2023-03-11T08:32:15;97592.03;;;18.93;53.13
18527;BME280;9393;42.158;24.748;2023-03-11T08:35:19;97593.97;;;19.36;52.37
18527;BME280;9393;42.158;24.748;2023-03-11T08:38:23;97600.31;;;19.18;51.86
18527;BME280;9393;42.158;24.748;2023-03-11T08:41:29;97592.44;;;19.01;51.66
18527;BME280;9393;42.158;24.748;2023-03-11T08:44:33;97602.22;;;18.84;52.29
18527;BME280;9393;42.158;24.748;2023-03-11T08:47:38;97596.53;;;18.92;51.88
18527;BME280;9393;42.158;24.748;2023-03-11T08:50:43;97598.44;;;18.97;51.13
18527;BME280;9393;42.158;24.748;2023-03-11T08:53:56;97586.44;;;19.06;51.12
18527;BME280;9393;42.158;24.748;2023-03-11T08:57:02;97590.16;;;19.27;50.22
18527;BME280;9393;42.158;24.748;2023-03-11T09:00:08;97589.47;;;19.36;50.49
18527;BME280;9393;42.158;24.748;2023-03-11T09:03:14;97588.59;;;19.09;50.88
18527;BME280;9393;42.158;24.748;2023-03-11T09:06:18;97580.97;;;19.12;50.83
18527;BME280;9393;42.158;24.748;2023-03-11T09:09:22;97579.41;;;19.33;50.29
18527;BME280;9393;42.158;24.748;2023-03-11T09:12:28;97569.06;;;19.32;49.59
18527;BME280;9393;42.158;24.748;2023-03-11T09:15:32;97571.50;;;18.78;51.06
18527;BME280;9393;42.158;24.748;2023-03-11T09:18:38;97558.94;;;18.85;50.26
18527;BME280;9393;42.158;24.748;2023-03-11T09:21:42;97550.53;;;19.10;50.47
18527;BME280;9393;42.158;24.748;2023-03-11T09:24:47;97552.50;;;18.98;50.76
18527;BME280;9393;42.158;24.748;2023-03-11T09:27:52;97549.88;;;19.20;50.25
18527;BME280;9393;42.158;24.748;2023-03-11T09:30:56;97542.47;;;19.60;48.48
18527;BME280;9393;42.158;24.748;2023-03-11T09:34:00;97532.81;;;19.49;49.08
18527;BME280;9393;42.158;24.748;2023-03-11T09:37:05;97530.19;;;19.10;49.40
18527;BME280;9393;42.158;24.748;2023-03-11T09:40:12;97523.34;;;18.93;49.83
18527;BME280;9393;42.158;24.748;2023-03-11T09:43:27;97521.97;;;18.85;50.96
18527;BME280;9393;42.158;24.748;2023-03-11T09:50:31;97534.78;;;19.58;48.80
18527;BME280;9393;42.158;24.748;2023-03-11T09:53:40;97527.19;;;19.89;47.96
18527;BME280;9393;42.158;24.748;2023-03-11T09:56:45;97525.13;;;20.23;46.88
18527;BME280;9393;42.158;24.748;2023-03-11T09:59:51;97524.44;;;20.32;46.35
18527;BME280;9393;42.158;24.748;2023-03-11T10:02:57;97523.69;;;20.37;45.28
18527;BME280;9393;42.158;24.748;2023-03-11T10:06:13;97525.91;;;20.55;44.10
18527;BME280;9393;42.158;24.748;2023-03-11T10:09:29;97524.63;;;21.04;42.64
18527;BME280;9393;42.158;24.748;2023-03-11T10:12:45;97533.16;;;20.70;42.44
18527;BME280;9393;42.158;24.748;2023-03-11T10:15:58;97529.84;;;20.89;42.09
18527;BME280;9393;42.158;24.748;2023-03-11T10:19:10;97531.66;;;20.42;42.61
18527;BME280;9393;42.158;24.748;2023-03-11T10:22:24;97528.94;;;20.10;42.93
18527;BME280;9393;42.158;24.748;2023-03-11T10:25:41;97527.50;;;19.92;43.35
18527;BME280;9393;42.158;24.748;2023-03-11T10:28:51;97528.16;;;19.83;43.80
18527;BME280;9393;42.158;24.748;2023-03-11T10:32:03;97537.00;;;20.47;43.49
18527;BME280;9393;42.158;24.748;2023-03-11T10:35:16;97525.41;;;21.52;41.54
18527;BME280;9393;42.158;24.748;2023-03-11T10:38:23;97518.13;;;21.99;40.12
18527;BME280;9393;42.158;24.748;2023-03-11T10:41:34;97513.34;;;22.11;38.79
18527;BME280;9393;42.158;24.748;2023-03-11T10:44:39;97519.47;;;22.17;38.29
18527;BME280;9393;42.158;24.748;2023-03-11T10:47:46;97513.13;;;22.33;37.61
18527;BME280;9393;42.158;24.748;2023-03-11T10:50:55;97508.06;;;22.11;37.98
18527;BME280;9393;42.158;24.748;2023-03-11T10:54:01;97495.03;;;22.35;38.15
18527;BME280;9393;42.158;24.748;2023-03-11T10:57:21;97501.16;;;22.71;37.33
18527;BME280;9393;42.158;24.748;2023-03-11T11:00:28;97500.25;;;23.16;36.84
18527;BME280;9393;42.158;24.748;2023-03-11T11:03:35;97497.50;;;23.31;36.53
18527;BME280;9393;42.158;24.748;2023-03-11T11:06:39;97489.69;;;23.55;36.18
18527;BME280;9393;42.158;24.748;2023-03-11T11:09:43;97489.25;;;23.33;35.69
18527;BME280;9393;42.158;24.748;2023-03-11T11:12:53;97486.69;;;23.72;35.32
18527;BME280;9393;42.158;24.748;2023-03-11T11:16:00;97486.66;;;23.77;34.54
18527;BME280;9393;42.158;24.748;2023-03-11T11:19:10;97478.81;;;22.72;35.70
18527;BME280;9393;42.158;24.748;2023-03-11T11:22:19;97492.66;;;22.44;35.99
18527;BME280;9393;42.158;24.748;2023-03-11T11:25:27;97474.84;;;21.94;36.50
18527;BME280;9393;42.158;24.748;2023-03-11T11:28:32;97479.00;;;21.44;36.89
18527;BME280;9393;42.158;24.748;2023-03-11T11:31:38;97467.31;;;21.40;37.02
18527;BME280;9393;42.158;24.748;2023-03-11T11:34:52;97455.06;;;21.34;36.90
18527;BME280;9393;42.158;24.748;2023-03-11T11:38:00;97463.84;;;21.30;36.67
18527;BME280;9393;42.158;24.748;2023-03-11T11:41:07;97451.28;;;21.10;36.72
18527;BME280;9393;42.158;24.748;2023-03-11T11:44:14;97462.44;;;21.17;36.94
18527;BME280;9393;42.158;24.748;2023-03-11T11:47:24;97454.41;;;21.84;36.15
18527;BME280;9393;42.158;24.748;2023-03-11T11:50:33;97455.75;;;22.47;35.21
18527;BME280;9393;42.158;24.748;2023-03-11T11:53:41;97447.50;;;22.44;33.49
18527;BME280;9393;42.158;24.748;2023-03-11T11:56:47;97452.81;;;22.49;31.76
18527;BME280;9393;42.158;24.748;2023-03-11T11:59:52;97448.81;;;22.41;31.64
18527;BME280;9393;42.158;24.748;2023-03-11T12:03:10;97437.38;;;22.61;31.44
18527;BME280;9393;42.158;24.748;2023-03-11T12:06:28;97427.81;;;22.60;31.53
18527;BME280;9393;42.158;24.748;2023-03-11T12:09:39;97423.59;;;22.49;32.21
18527;BME280;9393;42.158;24.748;2023-03-11T12:12:58;97428.06;;;22.58;32.57
18527;BME280;9393;42.158;24.748;2023-03-11T12:16:15;97420.63;;;22.86;32.08
18527;BME280;9393;42.158;24.748;2023-03-11T12:19:36;97415.50;;;22.99;32.25
18527;BME280;9393;42.158;24.748;2023-03-11T12:23:17;97423.53;;;22.79;32.11
18527;BME280;9393;42.158;24.748;2023-03-11T12:26:24;97416.94;;;22.61;31.98
18527;BME280;9393;42.158;24.748;2023-03-11T12:29:31;97416.66;;;22.63;31.95
18527;BME280;9393;42.158;24.748;2023-03-11T12:32:38;97423.84;;;22.68;32.15
18527;BME280;9393;42.158;24.748;2023-03-11T12:35:49;97422.25;;;22.56;32.16
18527;BME280;9393;42.158;24.748;2023-03-11T12:39:00;97405.25;;;22.52;32.67
18527;BME280;9393;42.158;24.748;2023-03-11T12:42:21;97410.06;;;22.35;32.84
18527;BME280;9393;42.158;24.748;2023-03-11T12:45:48;97416.50;;;22.09;33.01
18527;BME280;9393;42.158;24.748;2023-03-11T12:49:10;97415.66;;;21.78;33.58
18527;BME280;9393;42.158;24.748;2023-03-11T12:52:21;97421.94;;;21.32;34.13
18527;BME280;9393;42.158;24.748;2023-03-11T12:55:33;97440.13;;;21.08;35.46
18527;BME280;9393;42.158;24.748;2023-03-11T12:59:04;97433.78;;;20.57;38.13
18527;BME280;9393;42.158;24.748;2023-03-11T13:02:28;97431.09;;;20.99;37.57
18527;BME280;9393;42.158;24.748;2023-03-11T13:05:49;97439.41;;;21.28;36.51
18527;BME280;9393;42.158;24.748;2023-03-11T13:08:56;97441.00;;;21.19;35.93
18527;BME280;9393;42.158;24.748;2023-03-11T13:12:37;97445.66;;;21.01;35.74
18527;BME280;9393;42.158;24.748;2023-03-11T13:15:42;97459.22;;;21.10;36.05
18527;BME280;9393;42.158;24.748;2023-03-11T13:18:47;97469.75;;;21.00;36.50
18527;BME280;9393;42.158;24.748;2023-03-11T13:21:53;97471.50;;;20.74;37.24
18527;BME280;9393;42.158;24.748;2023-03-11T13:25:24;97487.44;;;20.84;37.47
18527;BME280;9393;42.158;24.748;2023-03-11T13:32:38;97480.97;;;20.28;39.29
18527;BME280;9393;42.158;24.748;2023-03-11T13:35:57;97478.53;;;20.22;39.47
18527;BME280;9393;42.158;24.748;2023-03-11T13:39:31;97479.53;;;20.15;39.97
18527;BME280;9393;42.158;24.748;2023-03-11T13:42:43;97480.63;;;20.20;40.40
18527;BME280;9393;42.158;24.748;2023-03-11T13:45:52;97477.47;;;20.23;40.32
18527;BME280;9393;42.158;24.748;2023-03-11T13:49:05;97493.78;;;20.41;40.04
18527;BME280;9393;42.158;24.748;2023-03-11T13:52:13;97485.03;;;20.09;40.56
18527;BME280;9393;42.158;24.748;2023-03-11T13:55:20;97489.31;;;20.15;40.43
18527;BME280;9393;42.158;24.748;2023-03-11T13:58:26;97492.13;;;20.03;40.00
18527;BME280;9393;42.158;24.748;2023-03-11T14:01:31;97499.25;;;20.30;39.17
18527;BME280;9393;42.158;24.748;2023-03-11T14:04:37;97490.38;;;19.82;39.84
18527;BME280;9393;42.158;24.748;2023-03-11T14:07:42;97484.44;;;20.02;39.71
18527;BME280;9393;42.158;24.748;2023-03-11T14:10:54;97495.31;;;19.52;41.22
18527;BME280;9393;42.158;24.748;2023-03-11T14:13:58;97492.03;;;19.93;40.24
18527;BME280;9393;42.158;24.748;2023-03-11T14:17:03;97486.75;;;19.66;40.94
18527;BME280;9393;42.158;24.748;2023-03-11T14:20:15;97503.81;;;19.81;40.51
18527;BME280;9393;42.158;24.748;2023-03-11T14:23:20;97489.88;;;19.85;40.25
18527;BME280;9393;42.158;24.748;2023-03-11T14:26:27;97489.97;;;20.00;40.25
18527;BME280;9393;42.158;24.748;2023-03-11T14:29:33;97496.44;;;20.09;40.29
18527;BME280;9393;42.158;24.748;2023-03-11T14:32:38;97504.63;;;19.81;40.91
18527;BME280;9393;42.158;24.748;2023-03-11T14:35:50;97504.03;;;19.74;40.92
18527;BME280;9393;42.158;24.748;2023-03-11T14:38:55;97500.06;;;20.03;40.49
18527;BME280;9393;42.158;24.748;2023-03-11T14:42:04;97509.59;;;20.04;39.92
18527;BME280;9393;42.158;24.748;2023-03-11T14:45:12;97504.56;;;20.03;39.70
18527;BME280;9393;42.158;24.748;2023-03-11T14:48:23;97501.56;;;19.94;40.08
18527;BME280;9393;42.158;24.748;2023-03-11T14:51:32;97510.81;;;19.65;41.04
18527;BME280;9393;42.158;24.748;2023-03-11T14:54:38;97514.19;;;19.60;41.40
18527;BME280;9393;42.158;24.748;2023-03-11T14:57:45;97520.09;;;19.67;41.69
18527;BME280;9393;42.158;24.748;2023-03-11T15:00:55;97519.81;;;19.69;40.96
18527;BME280;9393;42.158;24.748;2023-03-11T15:04:05;97523.47;;;19.63;40.31
18527;BME280;9393;42.158;24.748;2023-03-11T15:07:14;97526.97;;;19.69;39.82
18527;BME280;9393;42.158;24.748;2023-03-11T15:10:19;97527.53;;;19.71;39.23
18527;BME280;9393;42.158;24.748;2023-03-11T15:13:23;97531.59;;;19.56;39.62
18527;BME280;9393;42.158;24.748;2023-03-11T15:16:32;97533.41;;;19.51;40.12
18527;BME280;9393;42.158;24.748;2023-03-11T15:19:37;97544.09;;;19.61;40.19
18527;BME280;9393;42.158;24.748;2023-03-11T15:22:43;97547.53;;;19.61;39.80
18527;BME280;9393;42.158;24.748;2023-03-11T15:25:48;97552.97;;;19.55;39.57
18527;BME280;9393;42.158;24.748;2023-03-11T15:28:55;97553.97;;;19.49;39.14
18527;BME280;9393;42.158;24.748;2023-03-11T15:32:23;97564.88;;;19.36;39.07
18527;BME280;9393;42.158;24.748;2023-03-11T15:35:29;97569.91;;;19.15;39.26
18527;BME280;9393;42.158;24.748;2023-03-11T15:38:35;97582.13;;;19.22;39.33
18527;BME280;9393;42.158;24.748;2023-03-11T15:41:39;97588.31;;;19.10;40.08
18527;BME280;9393;42.158;24.748;2023-03-11T15:48:09;97613.06;;;19.04;40.40
18527;BME280;9393;42.158;24.748;2023-03-11T15:51:17;97623.88;;;18.86;41.82
18527;BME280;9393;42.158;24.748;2023-03-11T15:54:23;97638.28;;;18.62;42.75
18527;BME280;9393;42.158;24.748;2023-03-11T15:57:28;97650.88;;;18.43;44.38
18527;BME280;9393;42.158;24.748;2023-03-11T16:00:34;97660.53;;;18.38;44.71
18527;BME280;9393;42.158;24.748;2023-03-11T16:03:38;97671.47;;;18.30;45.31
18527;BME280;9393;42.158;24.748;2023-03-11T16:06:43;97676.22;;;18.16;45.97
18527;BME280;9393;42.158;24.748;2023-03-11T16:10:06;97669.28;;;17.98;45.95
18527;BME280;9393;42.158;24.748;2023-03-11T16:13:12;97689.81;;;17.96;47.24
18527;BME280;9393;42.158;24.748;2023-03-11T16:16:17;97693.75;;;17.82;48.41
18527;BME280;9393;42.158;24.748;2023-03-11T16:19:22;97706.16;;;17.70;49.36
18527;BME280;9393;42.158;24.748;2023-03-11T16:22:31;97712.00;;;17.60;49.69
18527;BME280;9393;42.158;24.748;2023-03-11T16:25:39;97724.22;;;17.55;49.72
18527;BME280;9393;42.158;24.748;2023-03-11T16:28:43;97722.75;;;17.36;49.91
18527;BME280;9393;42.158;24.748;2023-03-11T16:31:47;97740.50;;;17.52;49.89
18527;BME280;9393;42.158;24.748;2023-03-11T16:34:52;97740.97;;;17.49;50.42
18527;BME280;9393;42.158;24.748;2023-03-11T16:37:56;97745.91;;;17.34;51.61
18527;BME280;9393;42.158;24.748;2023-03-11T16:41:02;97742.53;;;17.15;53.10
18527;BME280;9393;42.158;24.748;2023-03-11T16:44:06;97752.16;;;17.09;53.07
18527;BME280;9393;42.158;24.748;2023-03-11T16:47:11;97781.41;;;16.90;54.92
18527;BME280;9393;42.158;24.748;2023-03-11T16:50:15;97767.06;;;16.74;55.68